Time;durP1;ratioP1;P1;durP2;ratioP2;P2;SDS_P1;SDS_P2;PMS_P1;PMS_P2;Temp;Humidity;BMP_temperature;BMP_pressure;BME280_temperature;BME280_humidity;BME280_pressure;Samples;Min_cycle;Max_cycle;Signal;HPM_P1;HPM_P2
2023/11/22 00:00:16;;;;;;;14.40;7.95;;;;;;;-146.27;86.59;33331.06;5097578;28;20061;-69
2023/11/22 00:02:41;;;;;;;16.55;9.50;;;;;;;-146.27;86.48;33327.09;5096481;28;20039;-68
2023/11/22 00:05:07;;;;;;;14.95;8.65;;;;;;;-146.27;86.25;33309.22;5087838;28;20034;-69
2023/11/22 00:07:33;;;;;;;14.68;9.02;;;;;;;-146.27;86.07;33303.28;5108276;28;20684;-69
2023/11/22 00:09:58;;;;;;;15.63;8.57;;;;;;;-146.27;85.91;33335.03;5096707;28;20023;-68
2023/11/22 00:12:24;;;;;;;16.77;9.43;;;;;;;-146.27;86.18;33344.94;5098877;28;20066;-68
2023/11/22 00:14:51;;;;;;;14.63;8.88;;;;;;;-146.27;86.15;33348.91;5098465;28;20093;-68
2023/11/22 00:17:19;;;;;;;13.88;8.80;;;;;;;-146.27;86.32;33283.44;5081352;28;20052;-70
2023/11/22 00:19:44;;;;;;;14.35;9.18;;;;;;;-146.27;85.63;33364.78;5078196;28;20562;-68
2023/11/22 00:22:13;;;;;;;16.10;8.95;;;;;;;-146.27;86.32;33350.91;5079712;28;20118;-69
2023/11/22 00:24:42;;;;;;;14.57;8.40;;;;;;;-146.27;86.04;33317.16;5077333;28;20715;-69
2023/11/22 00:27:08;;;;;;;16.38;9.25;;;;;;;-146.27;86.75;33372.72;5075710;28;20028;-69
2023/11/22 00:29:34;;;;;;;15.60;9.02;;;;;;;-146.27;86.19;33376.69;5078509;28;20044;-69
2023/11/22 00:32:00;;;;;;;19.80;9.55;;;;;;;-146.27;86.62;33342.97;5074085;28;20033;-68
2023/11/22 00:34:26;;;;;;;17.23;9.60;;;;;;;-146.27;86.63;33366.78;5078587;28;20158;-69
2023/11/22 00:36:51;;;;;;;17.38;9.05;;;;;;;-146.27;86.29;33354.88;5081490;28;20148;-69
2023/11/22 00:39:17;;;;;;;13.73;8.55;;;;;;;-146.27;86.72;33364.78;5074946;28;20036;-69
2023/11/22 00:41:44;;;;;;;16.25;8.23;;;;;;;-146.27;86.65;33335.03;5081990;28;20027;-69
2023/11/22 00:44:09;;;;;;;19.85;9.57;;;;;;;-146.27;87.01;33342.97;5075728;28;20024;-69
2023/11/22 00:46:34;;;;;;;14.20;8.95;;;;;;;-146.27;86.36;33348.91;5082685;28;20035;-69
2023/11/22 00:49:01;;;;;;;15.48;8.77;;;;;;;-146.27;86.27;33331.06;5077687;28;20028;-69
2023/11/22 00:51:26;;;;;;;19.90;9.77;;;;;;;-146.27;86.92;33348.91;5078708;28;20514;-69
2023/11/22 00:53:52;;;;;;;18.88;9.27;;;;;;;-146.27;86.72;33390.59;5075575;28;20028;-69
2023/11/22 00:56:17;;;;;;;16.65;9.88;;;;;;;-146.27;86.83;33325.09;5086719;28;20515;-69
2023/11/22 00:58:43;;;;;;;14.82;8.43;;;;;;;-146.27;86.08;33378.69;5081518;28;20537;-70
2023/11/22 01:01:08;;;;;;;17.65;9.13;;;;;;;-146.27;85.99;33394.56;5081824;28;20055;-72
2023/11/22 01:03:34;;;;;;;15.77;8.38;;;;;;;-146.27;85.78;33382.66;5077168;28;20708;-70
2023/11/22 01:06:00;;;;;;;15.60;8.85;;;;;;;-146.27;86.31;33364.78;5080104;28;20028;-70
2023/11/22 01:08:25;;;;;;;13.80;8.38;;;;;;;-146.27;86.37;33378.69;5079585;28;20103;-69
2023/11/22 01:10:51;;;;;;;13.65;7.88;;;;;;;-146.27;86.08;33386.63;5071930;28;20036;-69
2023/11/22 01:13:16;;;;;;;17.20;8.85;;;;;;;-146.27;86.05;33390.59;5082040;28;20017;-69
2023/11/22 01:15:42;;;;;;;12.18;7.93;;;;;;;-146.27;85.82;33410.44;5076658;28;21831;-70
2023/11/22 01:18:08;;;;;;;15.15;8.63;;;;;;;-146.27;86.08;33436.22;5086497;28;20039;-69
2023/11/22 01:20:33;;;;;;;15.35;9.00;;;;;;;-146.27;85.96;33408.44;5093592;28;20429;-70
2023/11/22 01:22:59;;;;;;;15.18;8.23;;;;;;;-146.27;86.04;33469.94;5100435;28;20025;-69
2023/11/22 01:25:24;;;;;;;19.92;8.90;;;;;;;-146.27;86.19;33426.28;5092775;28;20476;-70
2023/11/22 01:27:50;;;;;;;19.95;9.40;;;;;;;-146.27;86.14;33436.22;5098437;28;20385;-71
2023/11/22 01:30:15;;;;;;;17.63;8.85;;;;;;;-146.27;86.20;33410.44;5101572;28;20372;-68
2023/11/22 01:32:40;;;;;;;14.45;7.93;;;;;;;-146.27;85.74;33442.16;5094396;28;20028;-70
2023/11/22 01:35:06;;;;;;;17.35;9.30;;;;;;;-146.27;86.33;33477.88;5096780;28;20024;-69
2023/11/22 01:37:32;;;;;;;16.33;9.05;;;;;;;-146.27;86.23;33485.81;5100268;28;20024;-68
2023/11/22 01:39:58;;;;;;;16.73;9.45;;;;;;;-146.27;86.31;33465.97;5103058;28;20036;-69
2023/11/22 01:42:25;;;;;;;16.33;8.82;;;;;;;-146.27;86.55;33398.53;5095025;28;20085;-70
2023/11/22 01:44:52;;;;;;;16.63;8.98;;;;;;;-146.27;86.17;33465.97;5098960;28;20031;-69
2023/11/22 01:47:18;;;;;;;17.00;8.50;;;;;;;-146.27;85.84;33483.84;5099834;28;20027;-68
2023/11/22 01:49:45;;;;;;;18.35;8.60;;;;;;;-146.27;85.53;33505.66;5097241;28;20035;-68
2023/11/22 01:52:10;;;;;;;13.20;8.27;;;;;;;-146.27;86.67;33483.84;5104187;28;20538;-70
2023/11/22 01:54:36;;;;;;;17.55;9.70;;;;;;;-146.27;86.55;33497.72;5096240;28;20036;-69
2023/11/22 01:57:02;;;;;;;13.50;8.32;;;;;;;-146.27;86.44;33489.78;5097160;28;20508;-70
2023/11/22 01:59:29;;;;;;;16.80;9.80;;;;;;;-146.27;86.67;33493.75;5092239;28;20066;-69
2023/11/22 02:01:55;;;;;;;15.88;8.88;;;;;;;-146.27;86.13;33511.63;5099506;28;20396;-67
2023/11/22 02:04:20;;;;;;;15.15;9.35;;;;;;;-146.27;86.05;33509.63;5099439;28;20121;-69
2023/11/22 02:06:47;;;;;;;15.52;8.88;;;;;;;-146.27;86.30;33511.63;5091006;28;20028;-69
2023/11/22 02:09:15;;;;;;;17.17;8.57;;;;;;;-146.27;86.17;33487.81;5090369;28;20468;-69
2023/11/22 02:11:47;;;;;;;16.00;8.52;;;;;;;-146.27;86.40;33497.72;5098661;28;20042;-69
2023/11/22 02:14:13;;;;;;;16.38;8.95;;;;;;;-146.27;86.17;33547.34;5091260;28;20047;-69
2023/11/22 02:16:40;;;;;;;13.50;7.88;;;;;;;-146.27;85.95;33525.50;5092108;28;20079;-69
2023/11/22 02:19:06;;;;;;;14.93;9.23;;;;;;;-146.27;85.89;33527.50;5092376;28;20023;-69
2023/11/22 02:21:33;;;;;;;13.68;9.05;;;;;;;-146.27;86.52;33525.50;5102902;28;20035;-69
2023/11/22 02:23:58;;;;;;;17.15;9.32;;;;;;;-146.27;86.34;33549.31;5089198;28;20035;-69
2023/11/22 02:26:24;;;;;;;17.65;8.90;;;;;;;-146.27;86.65;33509.63;5095620;28;20375;-68
2023/11/22 02:28:50;;;;;;;16.23;9.30;;;;;;;-146.27;86.29;33517.56;5100269;28;20034;-69
2023/11/22 02:31:16;;;;;;;16.00;8.85;;;;;;;-146.27;86.32;33513.59;5095348;28;20043;-70
2023/11/22 02:33:41;;;;;;;15.63;8.80;;;;;;;-146.27;86.35;33501.69;5097702;28;20019;-69
2023/11/22 02:36:07;;;;;;;17.60;9.45;;;;;;;-146.27;86.40;33537.41;5101482;28;20051;-69
2023/11/22 02:38:34;;;;;;;15.88;8.88;;;;;;;-146.27;86.43;33533.44;5093940;28;20031;-68
2023/11/22 02:41:01;;;;;;;15.05;8.75;;;;;;;-146.27;87.02;33529.47;5100732;28;20126;-68
2023/11/22 02:43:26;;;;;;;21.05;8.90;;;;;;;-146.27;86.28;33545.34;5095709;28;20641;-69
2023/11/22 02:45:51;;;;;;;15.18;8.95;;;;;;;-146.27;86.70;33555.28;5087520;28;20016;-70
2023/11/22 02:48:18;;;;;;;24.80;8.55;;;;;;;-146.27;86.44;33553.28;5101866;28;20613;-69
2023/11/22 02:50:44;;;;;;;19.83;9.93;;;;;;;-146.27;86.17;33569.16;5096550;28;20088;-68
2023/11/22 02:53:09;;;;;;;15.65;8.73;;;;;;;-146.27;86.58;33589.00;5097323;28;20127;-69
2023/11/22 02:55:35;;;;;;;16.42;9.88;;;;;;;-146.27;86.26;33573.13;5085890;28;20028;-69
2023/11/22 02:58:02;;;;;;;16.83;9.45;;;;;;;-146.27;86.36;33577.09;5088540;28;20042;-70
2023/11/22 03:00:29;;;;;;;17.30;8.98;;;;;;;-146.27;86.24;33610.84;5106007;28;20024;-69
2023/11/22 03:02:55;;;;;;;14.88;9.15;;;;;;;-146.27;87.75;33555.28;5100473;28;20028;-69
2023/11/22 03:05:22;;;;;;;15.85;8.93;;;;;;;-146.27;87.54;33592.97;5103519;28;20185;-69
2023/11/22 03:07:47;;;;;;;17.23;8.68;;;;;;;-146.27;86.75;33585.03;5097158;28;20400;-69
2023/11/22 03:10:13;;;;;;;15.93;9.05;;;;;;;-146.27;86.32;33594.97;5101093;28;20039;-67
2023/11/22 03:12:39;;;;;;;16.48;9.35;;;;;;;-146.27;86.16;33565.19;5096882;28;20032;-68
2023/11/22 03:15:05;;;;;;;16.15;9.73;;;;;;;-146.27;86.97;33573.13;5095400;28;20028;-69
2023/11/22 03:17:31;;;;;;;21.42;8.35;;;;;;;-146.27;86.63;33598.94;5094232;28;20052;-69
2023/11/22 03:19:57;;;;;;;16.48;8.90;;;;;;;-146.27;86.66;33596.94;5101446;28;20028;-69
2023/11/22 03:22:29;;;;;;;14.35;9.00;;;;;;;-146.27;86.46;33594.97;5107473;28;20051;-69
2023/11/22 03:24:55;;;;;;;16.00;9.77;;;;;;;-146.27;87.78;33505.66;5094205;28;20830;-69
2023/11/22 03:27:22;;;;;;;15.45;9.45;;;;;;;-146.27;86.68;33600.91;5095456;28;20142;-69
2023/11/22 03:29:47;;;;;;;18.45;9.45;;;;;;;-146.27;87.48;33569.16;5098453;28;20065;-69
2023/11/22 03:32:13;;;;;;;16.50;9.02;;;;;;;-146.27;87.48;33581.06;5097091;28;20020;-69
2023/11/22 03:34:38;;;;;;;16.23;8.68;;;;;;;-146.27;86.86;33589.00;5100449;28;20384;-69
2023/11/22 03:37:03;;;;;;;19.75;10.32;;;;;;;-146.27;87.21;33589.00;5093772;28;20030;-69
2023/11/22 03:39:29;;;;;;;17.65;9.48;;;;;;;-146.27;86.59;33557.25;5110743;28;20024;-69
2023/11/22 03:41:55;;;;;;;20.90;9.93;;;;;;;-146.27;86.62;33600.91;5099752;28;20049;-69
2023/11/22 03:44:20;;;;;;;18.67;9.90;;;;;;;-146.27;87.62;33596.94;5092893;28;20035;-69
2023/11/22 03:46:46;;;;;;;15.98;9.50;;;;;;;-146.27;87.01;33596.94;5106293;28;20027;-70
2023/11/22 03:49:11;;;;;;;17.80;9.10;;;;;;;-146.27;86.51;33624.72;5102556;28;22312;-68
2023/11/22 03:51:38;;;;;;;12.32;8.20;;;;;;;-146.27;86.29;33600.91;5091523;28;20030;-68
2023/11/22 03:54:04;;;;;;;15.48;9.30;;;;;;;-146.27;86.46;33602.91;5097301;28;20081;-69
2023/11/22 03:56:30;;;;;;;16.15;9.60;;;;;;;-146.27;87.16;33585.03;5091845;28;20032;-69
2023/11/22 03:58:55;;;;;;;17.38;9.90;;;;;;;-146.27;87.36;33573.13;5092877;28;20138;-70
2023/11/22 04:01:21;;;;;;;16.38;9.88;;;;;;;-146.27;86.62;33592.97;5099561;28;20119;-70
2023/11/22 04:03:51;;;;;;;16.77;9.90;;;;;;;-146.27;86.36;33614.81;5092258;28;20161;-69
2023/11/22 04:06:17;;;;;;;18.17;9.15;;;;;;;-146.27;86.99;33596.94;5096405;28;20369;-68
2023/11/22 04:08:43;;;;;;;19.35;10.10;;;;;;;-146.27;86.84;33569.16;5102555;28;20027;-70
2023/11/22 04:11:10;;;;;;;20.45;11.10;;;;;;;-146.27;86.92;33587.03;5102759;28;20024;-69
2023/11/22 04:13:36;;;;;;;18.30;10.73;;;;;;;-146.27;87.67;33589.00;5094265;28;20019;-68
2023/11/22 04:16:01;;;;;;;18.45;9.48;;;;;;;-146.27;87.73;33581.06;5092248;28;20024;-68
2023/11/22 04:18:27;;;;;;;18.20;10.20;;;;;;;-146.27;87.49;33567.19;5104092;28;20676;-70
2023/11/22 04:20:52;;;;;;;16.08;9.40;;;;;;;-146.27;87.51;33553.28;5098244;28;20062;-68
2023/11/22 04:23:18;;;;;;;19.80;11.15;;;;;;;-146.27;87.33;33592.97;5092630;28;20398;-69
2023/11/22 04:25:43;;;;;;;17.02;10.32;;;;;;;-146.27;87.55;33581.06;5096128;28;20035;-69
2023/11/22 04:28:09;;;;;;;21.70;11.63;;;;;;;-146.27;87.89;33565.19;5104531;28;20023;-70
2023/11/22 04:30:35;;;;;;;21.92;11.63;;;;;;;-146.27;87.81;33573.13;5106666;28;20051;-69
2023/11/22 04:33:01;;;;;;;21.40;11.07;;;;;;;-146.27;87.02;33577.09;5095801;28;20410;-69
2023/11/22 04:35:27;;;;;;;22.38;11.77;;;;;;;-146.27;87.17;33555.28;5099769;28;20033;-69
2023/11/22 04:37:55;;;;;;;18.95;10.98;;;;;;;-146.27;87.42;33561.22;5102845;28;20024;-69
2023/11/22 04:40:20;;;;;;;21.08;11.50;;;;;;;-146.27;87.46;33458.03;5094258;28;20027;-68
2023/11/22 04:42:46;;;;;;;22.58;12.23;;;;;;;-146.27;87.74;33565.19;5102933;28;20020;-69
2023/11/22 04:45:11;;;;;;;21.20;11.18;;;;;;;-146.27;87.49;33533.44;5102319;28;20024;-69
2023/11/22 04:47:37;;;;;;;26.77;12.10;;;;;;;-146.27;87.94;33541.38;5092306;28;20026;-69
2023/11/22 04:50:02;;;;;;;21.30;11.98;;;;;;;-146.27;87.47;33521.53;5096860;28;20016;-69
2023/11/22 04:52:28;;;;;;;21.48;11.95;;;;;;;-146.27;87.65;33525.50;5097450;28;20027;-69
2023/11/22 04:54:53;;;;;;;23.25;12.25;;;;;;;-146.27;87.62;33553.28;5103159;28;20476;-69
2023/11/22 04:57:18;;;;;;;22.40;11.95;;;;;;;-146.27;87.27;33499.72;5094987;28;20027;-70
2023/11/22 04:59:45;;;;;;;19.48;12.15;;;;;;;-146.27;87.39;33511.63;5092588;28;20020;-69
2023/11/22 05:02:11;;;;;;;26.05;11.95;;;;;;;-146.27;87.25;33511.63;5099054;28;20072;-70
2023/11/22 05:04:36;;;;;;;28.33;13.57;;;;;;;-146.27;86.70;33519.56;5106673;28;20023;-69
2023/11/22 05:07:03;;;;;;;23.55;12.25;;;;;;;-146.27;86.81;33513.59;5103489;28;20107;-69
2023/11/22 05:09:28;;;;;;;28.05;12.88;;;;;;;-146.27;86.96;33481.84;5092612;28;20500;-70
2023/11/22 05:11:53;;;;;;;25.73;13.30;;;;;;;-146.27;86.64;33489.78;5096391;28;20032;-69
2023/11/22 05:14:19;;;;;;;21.90;11.63;;;;;;;-146.27;86.51;33513.59;5092085;28;20472;-69
2023/11/22 05:16:44;;;;;;;21.58;11.77;;;;;;;-146.27;86.36;33505.66;5107087;28;20471;-70
2023/11/22 05:19:09;;;;;;;21.70;12.25;;;;;;;-146.27;86.05;33529.47;5097656;28;20353;-70
2023/11/22 05:21:35;;;;;;;23.98;12.20;;;;;;;-146.27;86.18;33509.63;5104356;28;20464;-69
2023/11/22 05:24:00;;;;;;;20.85;12.00;;;;;;;-146.27;86.01;33533.44;5093958;28;20488;-68
2023/11/22 05:26:26;;;;;;;20.23;12.25;;;;;;;-146.27;85.75;33515.59;5090399;28;20051;-69
2023/11/22 05:28:53;;;;;;;22.48;12.25;;;;;;;-146.27;85.72;33517.56;5092516;28;20016;-69
2023/11/22 05:31:20;;;;;;;19.58;11.32;;;;;;;-146.27;85.40;33505.66;5102113;28;20039;-68
2023/11/22 05:33:46;;;;;;;20.80;12.30;;;;;;;-146.27;85.70;33553.28;5104550;28;20093;-69
2023/11/22 05:36:12;;;;;;;21.10;12.30;;;;;;;-146.27;85.67;33529.47;5100818;28;20027;-69
2023/11/22 05:38:38;;;;;;;22.55;11.90;;;;;;;-146.27;85.86;33561.22;5102859;28;20531;-71
2023/11/22 05:41:03;;;;;;;21.38;11.73;;;;;;;-146.27;86.06;33513.59;5105683;28;20020;-69
2023/11/22 05:43:28;;;;;;;21.27;11.90;;;;;;;-146.27;86.16;33549.31;5093613;28;20404;-69
2023/11/22 05:45:54;;;;;;;23.00;12.00;;;;;;;-146.27;85.84;33545.34;5110481;28;20043;-69
2023/11/22 05:48:19;;;;;;;21.52;12.10;;;;;;;-146.27;85.93;33517.56;5098532;28;20446;-69
2023/11/22 05:50:46;;;;;;;23.85;11.75;;;;;;;-146.27;85.79;33535.44;5100933;28;20110;-71
2023/11/22 05:53:12;;;;;;;24.52;12.27;;;;;;;-146.27;85.99;33513.59;5095487;28;20123;-69
2023/11/22 05:55:40;;;;;;;22.40;11.25;;;;;;;-146.27;85.65;33549.31;5108608;28;20107;-69
2023/11/22 05:58:06;;;;;;;20.15;10.43;;;;;;;-146.27;85.70;33555.28;5102778;28;20028;-69
2023/11/22 06:00:31;;;;;;;25.23;12.30;;;;;;;-146.27;86.18;33537.41;5093991;28;20360;-70
2023/11/22 06:02:58;;;;;;;25.35;11.85;;;;;;;-146.27;86.08;33523.53;5092740;28;20044;-69
2023/11/22 06:05:25;;;;;;;19.52;11.80;;;;;;;-146.27;85.83;33537.41;5091332;28;20032;-69
2023/11/22 06:07:51;;;;;;;22.83;12.70;;;;;;;-146.27;85.75;33517.56;5094107;28;20081;-70
2023/11/22 06:10:16;;;;;;;27.88;12.02;;;;;;;-146.27;85.72;33497.72;5095615;28;20360;-69
2023/11/22 06:12:43;;;;;;;22.75;13.07;;;;;;;-146.27;85.49;33529.47;5098243;28;20028;-68
2023/11/22 06:15:09;;;;;;;21.60;12.32;;;;;;;-146.27;85.35;33529.47;5091516;28;20423;-70
2023/11/22 06:17:34;;;;;;;25.38;12.30;;;;;;;-146.27;85.55;33559.25;5101345;28;20055;-69
2023/11/22 06:20:00;;;;;;;20.20;12.02;;;;;;;-146.27;85.46;33569.16;5096784;28;20111;-68
2023/11/22 06:22:25;;;;;;;24.42;12.07;;;;;;;-146.27;86.19;33529.47;5091935;28;20040;-69
2023/11/22 06:24:50;;;;;;;22.63;11.85;;;;;;;-146.27;86.60;33553.28;5089735;28;20119;-70
2023/11/22 06:27:16;;;;;;;24.95;12.95;;;;;;;-146.27;85.87;33553.28;5104408;28;20527;-69
2023/11/22 06:29:44;;;;;;;24.85;12.70;;;;;;;-146.27;85.90;33481.84;5102362;28;20026;-69
2023/11/22 06:32:09;;;;;;;22.65;12.75;;;;;;;-146.27;85.97;33513.59;5100339;28;20077;-70
2023/11/22 06:34:36;;;;;;;22.35;12.85;;;;;;;-146.27;86.05;33545.34;5104473;28;20023;-69
2023/11/22 06:37:02;;;;;;;23.42;12.13;;;;;;;-146.27;85.15;33569.16;5098755;28;20027;-69
2023/11/22 06:39:27;;;;;;;20.25;11.18;;;;;;;-146.27;85.32;33602.91;5074326;28;20026;-70
2023/11/22 06:41:53;;;;;;;19.73;10.90;;;;;;;-146.27;85.78;33573.13;5100921;28;20067;-69
2023/11/22 06:44:18;;;;;;;26.05;12.68;;;;;;;-146.27;85.34;33616.78;5095794;28;20551;-70
2023/11/22 06:46:44;;;;;;;26.30;12.45;;;;;;;-146.27;85.31;33583.06;5104376;28;20039;-70
2023/11/22 06:49:09;;;;;;;25.17;11.75;;;;;;;-146.27;85.04;33555.28;5094179;28;20016;-69
2023/11/22 06:51:35;;;;;;;22.15;11.88;;;;;;;-146.27;84.89;33581.06;5079659;28;20069;-69
2023/11/22 06:54:00;;;;;;;22.48;11.63;;;;;;;-146.27;84.80;33585.03;5099203;28;20120;-69
2023/11/22 06:56:26;;;;;;;22.02;11.07;;;;;;;-146.27;84.63;33553.28;5107966;28;20634;-68
2023/11/22 06:58:51;;;;;;;26.20;13.05;;;;;;;-146.27;84.47;33604.88;5101597;28;20028;-69
2023/11/22 07:01:17;;;;;;;25.27;13.13;;;;;;;-146.27;84.50;33616.78;5100323;28;20442;-69
2023/11/22 07:03:42;;;;;;;27.20;12.15;;;;;;;-146.27;84.31;33565.19;5098096;28;20016;-68
2023/11/22 07:06:08;;;;;;;27.42;12.02;;;;;;;-146.27;84.15;33565.19;5096013;28;20034;-70
2023/11/22 07:08:34;;;;;;;23.88;12.40;;;;;;;-146.27;84.04;33608.84;5097627;28;20375;-71
2023/11/22 07:11:00;;;;;;;25.95;11.45;;;;;;;-146.27;84.03;33577.09;5096353;28;20036;-69
2023/11/22 07:13:26;;;;;;;24.95;12.73;;;;;;;-146.27;83.91;33585.03;5081324;28;20023;-69
2023/11/22 07:15:54;;;;;;;22.85;12.90;;;;;;;-146.27;83.83;33596.94;5098847;28;20032;-70
2023/11/22 07:18:19;;;;;;;22.13;11.93;;;;;;;-146.27;83.88;33600.91;5096132;28;20203;-69
2023/11/22 07:20:48;;;;;;;25.63;13.50;;;;;;;-146.27;83.63;33602.91;5101031;28;20027;-69
2023/11/22 07:23:13;;;;;;;27.70;11.90;;;;;;;-146.27;83.48;33587.03;5095195;28;20032;-69
2023/11/22 07:25:39;;;;;;;26.55;10.95;;;;;;;-146.27;83.51;33638.59;5096026;28;20035;-69
2023/11/22 07:28:05;;;;;;;25.65;13.25;;;;;;;-146.27;83.42;33589.00;5094290;28;20395;-69
2023/11/22 07:30:32;;;;;;;21.30;11.82;;;;;;;-146.27;83.33;33626.72;5099918;28;20022;-69
2023/11/22 07:32:59;;;;;;;24.23;12.75;;;;;;;-146.27;83.39;33628.69;5101072;28;20031;-70
2023/11/22 07:35:25;;;;;;;30.20;13.15;;;;;;;-146.27;83.36;33620.75;5095704;28;20093;-71
2023/11/22 07:37:51;;;;;;;26.60;13.23;;;;;;;-146.27;83.47;33600.91;5095408;28;20035;-71
2023/11/22 07:40:19;;;;;;;25.13;13.90;;;;;;;-146.27;83.39;33648.53;5097714;28;20080;-69
2023/11/22 07:42:44;;;;;;;25.10;12.57;;;;;;;-146.27;83.33;33644.56;5092450;28;20031;-70
2023/11/22 07:45:11;;;;;;;24.08;12.80;;;;;;;-146.27;83.36;33640.59;5097970;28;20032;-69
2023/11/22 07:47:39;;;;;;;24.42;13.20;;;;;;;-146.27;83.34;33656.47;5099883;28;20023;-69
2023/11/22 07:50:07;;;;;;;28.17;12.88;;;;;;;-146.27;83.12;33656.47;5096241;28;20028;-70
2023/11/22 07:52:32;;;;;;;26.70;12.98;;;;;;;-146.27;83.20;33642.56;5098322;28;20027;-69
2023/11/22 07:54:59;;;;;;;25.10;12.60;;;;;;;-146.27;83.51;33642.56;5097463;28;20642;-68
2023/11/22 07:57:25;;;;;;;28.55;13.13;;;;;;;-146.27;83.38;33628.69;5093306;28;20032;-69
2023/11/22 07:59:54;;;;;;;23.42;12.75;;;;;;;-146.27;83.28;33630.69;5101826;28;20020;-69
2023/11/22 08:02:19;;;;;;;27.30;12.98;;;;;;;-146.27;83.37;33656.47;5096779;28;20085;-69
2023/11/22 08:04:45;;;;;;;22.92;11.90;;;;;;;-146.27;83.45;33704.09;5097158;28;20628;-69
2023/11/22 08:07:14;;;;;;;28.42;13.52;;;;;;;-146.27;83.84;33668.38;5095684;28;20028;-70
2023/11/22 08:09:41;;;;;;;25.50;13.77;;;;;;;-146.27;83.78;33620.75;5093917;28;20467;-68
2023/11/22 08:12:07;;;;;;;25.27;12.20;;;;;;;-146.27;83.63;33634.66;5093911;28;20329;-70
2023/11/22 08:14:33;;;;;;;25.67;13.40;;;;;;;-146.27;83.87;33624.72;5099074;27;20846;-70
2023/11/22 08:16:58;;;;;;;25.92;13.88;;;;;;;-146.27;83.99;33585.03;5101879;28;20035;-68
2023/11/22 08:19:24;;;;;;;21.75;12.35;;;;;;;-146.27;83.85;33602.91;5096728;28;20028;-71
2023/11/22 08:21:50;;;;;;;30.02;12.80;;;;;;;-146.27;83.61;33583.06;5097786;28;20038;-70
2023/11/22 08:24:15;;;;;;;23.85;12.13;;;;;;;-146.27;83.17;33581.06;5098895;28;20531;-70
2023/11/22 08:26:40;;;;;;;25.55;13.05;;;;;;;-146.27;83.50;33537.41;5102450;28;20548;-71
2023/11/22 08:29:07;;;;;;;20.55;11.70;;;;;;;-146.27;83.19;33501.69;5098623;28;20020;-70
2023/11/22 08:31:34;;;;;;;25.52;13.73;;;;;;;-146.27;83.50;33537.41;5098887;28;20019;-70
2023/11/22 08:33:59;;;;;;;23.30;13.30;;;;;;;-146.27;83.45;33519.56;5096851;28;20024;-69
2023/11/22 08:36:28;;;;;;;23.70;13.38;;;;;;;-146.27;83.23;33519.56;5099826;28;20032;-71
2023/11/22 08:38:55;;;;;;;27.55;13.80;;;;;;;-146.27;83.15;33517.56;5104060;28;20019;-70
2023/11/22 08:41:21;;;;;;;25.17;14.30;;;;;;;-146.27;82.85;33519.56;5095598;28;20123;-70
2023/11/22 08:43:48;;;;;;;27.98;14.40;;;;;;;-146.27;82.77;33507.66;5079059;28;20024;-71
2023/11/22 08:46:14;;;;;;;26.52;13.77;;;;;;;-146.27;82.52;33493.75;5097547;28;20505;-71
2023/11/22 08:48:39;;;;;;;27.95;13.95;;;;;;;-146.27;82.37;33422.34;5098430;28;20443;-71
2023/11/22 08:51:05;;;;;;;29.30;15.30;;;;;;;-146.27;82.17;33479.88;5100033;28;20028;-68
2023/11/22 08:53:30;;;;;;;27.42;14.25;;;;;;;-146.27;81.91;33469.94;5098598;28;20024;-70
2023/11/22 08:55:56;;;;;;;27.27;14.45;;;;;;;-146.27;81.79;33479.88;5097568;28;20483;-72
2023/11/22 08:58:23;;;;;;;23.73;14.50;;;;;;;-146.27;81.92;33465.97;5102360;28;20089;-71
2023/11/22 09:00:48;;;;;;;27.08;13.23;;;;;;;-146.27;81.59;33469.94;5099878;28;20020;-71
2023/11/22 09:03:14;;;;;;;27.38;13.85;;;;;;;-146.27;81.46;33444.16;5099653;28;20034;-70
2023/11/22 09:05:40;;;;;;;25.73;14.73;;;;;;;-146.27;81.37;33424.31;5099946;28;20062;-70
2023/11/22 09:08:06;;;;;;;26.88;14.00;;;;;;;-146.27;81.38;33475.91;5101659;28;20026;-70
2023/11/22 09:10:31;;;;;;;22.83;13.63;;;;;;;-146.27;81.54;33469.94;5091179;28;20400;-69
2023/11/22 09:12:59;;;;;;;25.63;13.63;;;;;;;-146.27;81.60;33495.75;5072519;28;20027;-70
2023/11/22 09:15:26;;;;;;;26.40;14.95;;;;;;;-146.27;81.57;33448.13;5093988;28;20106;-70
2023/11/22 09:17:53;;;;;;;23.08;13.90;;;;;;;-146.27;81.68;33438.19;5101396;28;20067;-69
2023/11/22 09:20:20;;;;;;;27.80;14.88;;;;;;;-146.27;81.47;33418.38;5097646;28;20519;-69
2023/11/22 09:22:51;;;;;;;26.33;13.88;;;;;;;-146.27;81.33;33394.56;5094288;28;20043;-69
2023/11/22 09:25:20;;;;;;;25.15;14.68;;;;;;;-146.27;81.24;33402.50;5090105;28;20027;-69
2023/11/22 09:27:47;;;;;;;26.45;13.48;;;;;;;-146.27;81.21;33414.41;5092376;28;20032;-69
2023/11/22 09:30:19;;;;;;;23.40;13.32;;;;;;;-146.27;81.05;33388.59;5101307;28;20023;-69
2023/11/22 09:32:46;;;;;;;24.25;13.82;;;;;;;-146.27;81.05;33386.63;5096561;28;20028;-70
2023/11/22 09:35:14;;;;;;;28.15;13.82;;;;;;;-146.27;80.97;33430.28;5100634;28;20073;-72
2023/11/22 09:37:41;;;;;;;24.63;14.70;;;;;;;-146.27;80.94;33402.50;5093432;28;20032;-71
2023/11/22 09:40:09;;;;;;;24.75;13.40;;;;;;;-146.27;80.62;33374.72;5099200;28;20020;-71
2023/11/22 09:42:34;;;;;;;28.75;13.88;;;;;;;-146.27;80.89;33418.38;5088969;28;20031;-71
2023/11/22 09:45:00;;;;;;;24.80;13.38;;;;;;;-146.27;80.40;33392.56;5082118;28;20494;-70
2023/11/22 09:47:28;;;;;;;26.65;12.55;;;;;;;-146.27;81.32;33430.28;5110391;28;20088;-70
2023/11/22 09:49:56;;;;;;;24.45;13.57;;;;;;;-146.27;81.56;33465.97;5099981;28;20027;-70
2023/11/22 09:52:24;;;;;;;26.88;14.20;;;;;;;-146.27;81.24;33362.81;5094815;28;20081;-70
2023/11/22 09:54:51;;;;;;;30.05;14.68;;;;;;;-146.27;81.08;33380.66;5089243;28;20111;-71
2023/11/22 09:57:19;;;;;;;26.70;13.73;;;;;;;-146.27;80.99;33323.13;5089687;28;20779;-70
2023/11/22 09:59:49;;;;;;;36.47;14.55;;;;;;;-146.27;80.44;33279.47;5076284;28;20433;-69
2023/11/22 10:02:15;;;;;;;26.80;13.50;;;;;;;-146.27;80.95;33247.72;5095577;28;20088;-69
2023/11/22 10:04:41;;;;;;;27.02;14.40;;;;;;;-146.27;80.32;33275.50;5083660;28;20031;-71
2023/11/22 10:07:09;;;;;;;26.55;13.23;;;;;;;-146.27;80.02;33237.81;5095685;28;20076;-69
2023/11/22 10:09:37;;;;;;;24.65;12.50;;;;;;;-146.27;79.35;33235.81;5094274;28;20020;-69
2023/11/22 10:12:05;;;;;;;27.63;12.95;;;;;;;-146.27;78.92;33223.91;5098491;28;20119;-69
2023/11/22 10:14:30;;;;;;;23.30;13.45;;;;;;;-146.27;78.03;33114.78;5094745;28;20475;-70
2023/11/22 10:17:02;;;;;;;22.02;12.50;;;;;;;-146.27;76.93;33247.72;5093261;28;20081;-69
2023/11/22 10:19:30;;;;;;;25.05;12.98;;;;;;;-146.27;76.88;33212.00;5093329;28;20089;-69
2023/11/22 10:22:04;;;;;;;27.10;14.15;;;;;;;-146.27;76.32;33118.75;5090323;28;20031;-71
2023/11/22 10:24:33;;;;;;;26.45;13.13;;;;;;;-146.27;76.69;33144.56;5092906;28;20158;-70
2023/11/22 10:27:01;;;;;;;25.77;13.30;;;;;;;-146.27;75.55;33098.94;5092101;28;20507;-70
2023/11/22 10:29:26;;;;;;;21.73;12.63;;;;;;;-146.27;76.16;33144.56;5095733;28;20031;-69
2023/11/22 10:31:53;;;;;;;21.55;12.77;;;;;;;-146.27;77.46;33221.94;5100375;28;20041;-69
2023/11/22 10:34:22;;;;;;;23.60;11.68;;;;;;;-146.27;76.34;33160.44;5097748;28;20035;-69
2023/11/22 10:36:47;;;;;;;22.40;12.13;;;;;;;-146.27;76.27;33142.56;5097336;28;20032;-69
2023/11/22 10:39:16;;;;;;;21.55;12.65;;;;;;;-146.27;75.99;33069.16;5095240;28;20047;-70
2023/11/22 10:41:43;;;;;;;20.33;11.82;;;;;;;-146.27;75.21;32991.78;5106322;28;20063;-69
2023/11/22 10:44:09;;;;;;;20.67;11.52;;;;;;;-146.27;74.22;32995.75;5091636;28;20024;-69
2023/11/22 10:46:36;;;;;;;20.35;12.10;;;;;;;-146.27;73.45;32850.94;5089268;28;20420;-70
2023/11/22 10:49:02;;;;;;;19.40;11.05;;;;;;;-146.27;72.74;32809.28;5090324;28;20090;-69
2023/11/22 10:51:32;;;;;;;19.60;11.40;;;;;;;-146.27;72.54;32876.72;5091460;28;20028;-72
2023/11/22 10:54:00;;;;;;;19.30;10.52;;;;;;;-146.27;71.62;32870.78;5100896;28;20499;-71
2023/11/22 10:56:27;;;;;;;20.77;10.43;;;;;;;-146.27;70.72;32880.69;5102475;28;20070;-70
2023/11/22 10:58:57;;;;;;;23.58;10.68;;;;;;;-146.27;70.51;32843.00;5093759;28;20032;-72